METAR AND TAF INFORMATION
METAR FOR SBKG
ADDS - METARS form results

(1114 UTC 28 February 2020)
Data provider http://aviationweather.gov/metar/data/
 
Forecast for: SBKG (CAMPINA GRANDE , BR)
Text: TAF SBKG 280400Z 2806/2818 09008KT 5000 BR BKN008 TN23/2806Z TX32/2816Z
Forecast period: 0600 to 0800 UTC 28 February 2020
Forecast type: FROM: standard forecast or significant change
Winds: from the E (90 degrees) at 9 MPH (8 knots; 4.1 m/s)
Visibility: 3 miles (5 km)
Ceiling: 800 feet AGL
Clouds: broken clouds at 800 feet AGL
Weather: BR  (mist)
Text: BECMG 2808/2810 9999 NSW SCT020 RMK PES
Forecast period: 0800 to 1800 UTC 28 February 2020
Forecast type: BECOMING: Conditions expected to become as follows by 1000 UTC 28 February 2020
Winds: from the E (90 degrees) at 9 MPH (8 knots; 4.1 m/s)
Visibility: 6 or more miles 10+ km)
Ceiling: at least 12,000 feet AGL
Clouds: scattered clouds at 2000 feet AGL
Weather: NSW  (no significant weather)

 AIRPORT MAP

 RUNWAY INFORMATION
Runway 15 Runway length 5249 ft Runway width 138 ft
Runway elevation 0 ft Runway displaced threshold 0 ft Runway heading 0
Runway 33 Runway length 5249 ft Runway width 138 ft
Runway elevation 0 ft Runway displaced threshold 0 ft Runway heading 0

 AIRPORT FREQUENCIES
Type AFIS Name CAMPINA GR Frequency 125.9 MHZ

 AIRPORT NEAR NAVIGATION AIDS
Type NDB Name Campina Grande Frequency 230 KHZ



Powered by Virtual Airlines Manager [v2.6.2]